Time;durP1;ratioP1;P1;durP2;ratioP2;P2;SDS_P1;SDS_P2;PMS_P1;PMS_P2;Temp;Humidity;BMP_temperature;BMP_pressure;BME280_temperature;BME280_humidity;BME280_pressure;Samples;Min_cycle;Max_cycle;Signal;HPM_P1;HPM_P2
2022/03/23 00:00:51;;;;;;;23.13;15.33;;;6.90;1.00;;;;;;5066305;28;20204;-64
2022/03/23 00:03:18;;;;;;;23.90;15.83;;;6.90;1.00;;;;;;5059933;28;20199;-64
2022/03/23 00:05:45;;;;;;;25.63;17.73;;;6.80;1.00;;;;;;5065526;28;20790;-63
2022/03/23 00:08:12;;;;;;;24.37;16.30;;;6.80;1.00;;;;;;5065680;28;20294;-63
2022/03/23 00:10:41;;;;;;;27.10;17.90;;;6.80;1.00;;;;;;5060708;28;20260;-63
2022/03/23 00:13:08;;;;;;;23.10;16.87;;;6.80;1.00;;;;;;5060071;28;20207;-63
2022/03/23 00:15:35;;;;;;;28.17;18.03;;;6.80;1.00;;;;;;5044918;28;20195;-63
2022/03/23 00:18:02;;;;;;;24.83;16.87;;;6.80;1.00;;;;;;5043177;28;20894;-62
2022/03/23 00:20:32;;;;;;;25.10;15.27;;;6.70;1.00;;;;;;5050718;28;20286;-63
2022/03/23 00:23:00;;;;;;;27.10;16.50;;;6.60;1.00;;;;;;5060811;28;20218;-64
2022/03/23 00:25:27;;;;;;;22.40;15.97;;;6.60;1.00;;;;;;5060795;28;20320;-63
2022/03/23 00:27:54;;;;;;;19.97;14.93;;;6.70;1.00;;;;;;5062326;28;20207;-63
2022/03/23 00:30:21;;;;;;;24.50;15.67;;;6.60;1.00;;;;;;5048977;28;20234;-62
2022/03/23 00:32:50;;;;;;;23.63;16.23;;;6.50;1.00;;;;;;5050371;28;20876;-65
2022/03/23 00:35:17;;;;;;;22.93;15.70;;;6.60;1.00;;;;;;5045361;28;20710;-64
2022/03/23 00:37:46;;;;;;;20.70;15.17;;;6.50;1.00;;;;;;5042821;28;20251;-64
2022/03/23 00:40:16;;;;;;;28.17;16.03;;;6.50;1.00;;;;;;5061161;28;20561;-64
2022/03/23 00:42:45;;;;;;;26.27;16.07;;;6.50;1.00;;;;;;5060724;28;20231;-65
2022/03/23 00:45:15;;;;;;;25.23;15.20;;;6.30;1.00;;;;;;5045180;28;20199;-64
2022/03/23 00:47:43;;;;;;;22.87;15.97;;;6.30;1.00;;;;;;5048868;28;20195;-65
2022/03/23 00:50:10;;;;;;;24.53;16.23;;;6.20;1.00;;;;;;5049613;28;20666;-64
2022/03/23 00:52:37;;;;;;;23.57;16.00;;;6.00;1.00;;;;;;5059789;28;20576;-64
2022/03/23 00:55:09;;;;;;;30.03;15.20;;;6.00;1.00;;;;;;5065830;28;20195;-64
2022/03/23 00:57:37;;;;;;;23.90;15.10;;;6.00;1.00;;;;;;5061461;28;20214;-64
2022/03/23 01:00:12;;;;;;;23.13;15.07;;;5.90;1.00;;;;;;5062117;28;20194;-64
2022/03/23 01:02:40;;;;;;;22.03;14.87;;;5.80;1.00;;;;;;5031810;28;20202;-65
2022/03/23 01:05:09;;;;;;;20.83;15.80;;;5.70;1.00;;;;;;5062221;28;20200;-64
2022/03/23 01:07:36;;;;;;;20.20;14.57;;;5.70;1.00;;;;;;5046814;28;20210;-64
2022/03/23 01:10:05;;;;;;;19.80;14.33;;;5.70;1.00;;;;;;5052169;28;20223;-64
2022/03/23 01:12:34;;;;;;;21.90;15.40;;;5.60;1.00;;;;;;5061931;28;20579;-64
2022/03/23 01:15:01;;;;;;;22.07;15.17;;;5.60;1.00;;;;;;5052020;28;20199;-64
2022/03/23 01:17:30;;;;;;;21.53;15.77;;;5.60;1.00;;;;;;5062570;28;20294;-64
2022/03/23 01:19:57;;;;;;;22.87;14.57;;;5.70;1.00;;;;;;5062549;28;20207;-64
2022/03/23 01:22:25;;;;;;;21.07;14.63;;;5.60;1.00;;;;;;5063639;28;20258;-63
2022/03/23 01:24:55;;;;;;;20.10;15.30;;;5.60;1.00;;;;;;5068965;28;20297;-64
2022/03/23 01:27:23;;;;;;;24.53;14.63;;;5.60;1.00;;;;;;5065024;28;20215;-64
2022/03/23 01:29:50;;;;;;;22.10;14.90;;;5.60;1.00;;;;;;5051540;28;20261;-64
2022/03/23 01:32:17;;;;;;;21.37;14.93;;;5.50;25.90;;;;;;5065842;28;20199;-64
2022/03/23 01:34:44;;;;;;;24.20;15.43;;;5.40;59.90;;;;;;5060194;28;20199;-64
2022/03/23 01:37:11;;;;;;;21.10;14.47;;;5.50;41.20;;;;;;5069778;28;20310;-64
2022/03/23 01:39:38;;;;;;;20.20;14.67;;;5.50;19.60;;;;;;5062532;28;20245;-64
2022/03/23 01:42:05;;;;;;;22.07;15.50;;;5.40;28.20;;;;;;5060539;28;20207;-63
2022/03/23 01:44:32;;;;;;;21.07;14.53;;;5.50;9.90;;;;;;5051958;28;20241;-64
2022/03/23 01:47:01;;;;;;;19.70;14.70;;;5.50;26.20;;;;;;5062759;28;20196;-62
2022/03/23 01:49:33;;;;;;;21.53;15.33;;;5.50;48.00;;;;;;5052030;28;20836;-62
2022/03/23 01:52:01;;;;;;;29.33;16.40;;;5.50;54.00;;;;;;5044874;28;20302;-63
2022/03/23 01:54:28;;;;;;;23.47;15.03;;;5.50;58.40;;;;;;5063605;28;20196;-62
2022/03/23 01:56:57;;;;;;;21.70;16.03;;;5.50;59.00;;;;;;5069030;28;20231;-63
2022/03/23 01:59:26;;;;;;;23.00;15.27;;;5.40;60.10;;;;;;5068662;28;20199;-62
2022/03/23 02:01:59;;;;;;;23.87;15.80;;;5.40;85.30;;;;;;5060955;28;20203;-62
2022/03/23 02:04:28;;;;;;;21.80;15.37;;;5.40;89.50;;;;;;5046895;28;20199;-62
2022/03/23 02:06:55;;;;;;;24.47;14.83;;;5.30;74.10;;;;;;5062949;28;20195;-62
2022/03/23 02:09:26;;;;;;;21.97;15.70;;;5.30;99.90;;;;;;5067717;28;20344;-63
2022/03/23 02:11:55;;;;;;;22.07;15.50;;;5.30;99.90;;;;;;5063594;28;20274;-63
2022/03/23 02:14:22;;;;;;;23.07;15.47;;;5.20;99.90;;;;;;5072296;28;20203;-63
2022/03/23 02:16:51;;;;;;;22.40;15.73;;;5.20;99.90;;;;;;5048389;28;20222;-62
2022/03/23 02:19:21;;;;;;;22.87;16.93;;;5.10;99.90;;;;;;5048398;28;20206;-62
2022/03/23 02:21:56;;;;;;;26.73;16.67;;;5.10;99.90;;;;;;5065707;28;20218;-62
2022/03/23 02:24:28;;;;;;;27.07;16.33;;;5.10;99.90;;;;;;5062422;28;20210;-62
2022/03/23 02:26:56;;;;;;;26.50;16.80;;;5.00;99.90;;;;;;5061185;28;20234;-63
2022/03/23 02:29:29;;;;;;;23.43;17.70;;;5.10;99.90;;;;;;5060071;28;20249;-63
2022/03/23 02:31:57;;;;;;;24.43;16.53;;;5.10;99.90;;;;;;5045176;28;20198;-63
2022/03/23 02:34:27;;;;;;;25.70;17.43;;;5.00;99.90;;;;;;5054935;28;20191;-62
2022/03/23 02:37:01;;;;;;;21.33;15.83;;;5.00;99.90;;;;;;5052197;28;20368;-65
2022/03/23 02:39:28;;;;;;;22.97;17.30;;;5.20;1.00;;;;;;5064224;28;20626;-64
2022/03/23 02:41:56;;;;;;;31.47;22.07;;;5.30;1.00;;;;;;5064801;28;20254;-63
2022/03/23 02:44:26;;;;;;;40.17;26.40;;;5.80;1.00;;;;;;5062283;28;20310;-63
2022/03/23 02:46:53;;;;;;;41.40;27.77;;;6.40;1.00;;;;;;5044580;28;20207;-63
2022/03/23 02:49:23;;;;;;;33.97;24.57;;;7.00;99.90;;;;;;5060404;28;20281;-63
2022/03/23 02:51:50;;;;;;;34.90;24.43;;;7.40;99.90;;;;;;5051336;28;20234;-64
2022/03/23 03:03:43;;;;;;;19.87;15.07;;;5.90;99.90;;;;;;5060707;28;20188;-63
2022/03/23 03:06:10;;;;;;;21.97;16.57;;;5.50;99.90;;;;;;5060479;28;20229;-63
2022/03/23 03:08:45;;;;;;;22.63;15.60;;;5.20;99.90;;;;;;5060706;28;20297;-64
2022/03/23 03:11:15;;;;;;;23.50;15.83;;;4.90;1.00;;;;;;5060896;28;20204;-63
2022/03/23 03:13:48;;;;;;;23.80;16.20;;;4.50;1.00;;;;;;5060975;28;20602;-63
2022/03/23 03:16:20;;;;;;;25.47;17.57;;;4.10;1.00;;;;;;5060284;28;20256;-64
2022/03/23 03:18:48;;;;;;;25.00;16.77;;;3.80;1.00;;;;;;5059793;28;20219;-63
2022/03/23 03:21:15;;;;;;;25.40;16.70;;;3.60;1.00;;;;;;5058569;28;20269;-63
2022/03/23 03:23:44;;;;;;;23.67;15.27;;;3.50;1.00;;;;;;5060201;28;20234;-63
2022/03/23 03:26:13;;;;;;;26.03;16.43;;;3.60;1.00;;;;;;5069801;28;20214;-62
2022/03/23 03:28:41;;;;;;;23.23;16.57;;;3.70;1.00;;;;;;5057706;28;20812;-62
2022/03/23 03:35:09;;;;;;;21.97;15.10;;;3.90;1.00;;;;;;5060262;28;20540;-62
2022/03/23 03:37:36;;;;;;;27.93;17.50;;;4.00;1.00;;;;;;5063303;28;20250;-62
2022/03/23 03:40:05;;;;;;;23.23;16.40;;;3.90;1.00;;;;;;5060311;28;20203;-62
2022/03/23 03:42:32;;;;;;;23.17;16.00;;;3.90;1.00;;;;;;5058693;28;20237;-62
2022/03/23 03:44:59;;;;;;;28.60;16.80;;;4.00;1.00;;;;;;5065900;28;20593;-63
2022/03/23 03:47:26;;;;;;;28.40;16.77;;;3.90;1.00;;;;;;5062345;28;20285;-62
2022/03/23 03:49:53;;;;;;;25.20;17.00;;;4.00;1.00;;;;;;5064074;28;20192;-62
2022/03/23 03:52:20;;;;;;;26.93;17.90;;;4.00;1.00;;;;;;5049325;28;20589;-62
2022/03/23 03:54:47;;;;;;;25.23;17.87;;;4.00;1.00;;;;;;5059866;28;20199;-62
2022/03/23 03:57:14;;;;;;;25.00;16.27;;;3.90;1.00;;;;;;5045306;28;20721;-62
2022/03/23 03:59:41;;;;;;;24.27;16.90;;;3.90;1.00;;;;;;5057865;28;20924;-63
2022/03/23 04:02:10;;;;;;;22.97;16.63;;;3.90;1.00;;;;;;5056365;28;20203;-63
2022/03/23 04:04:37;;;;;;;27.40;16.60;;;3.90;1.00;;;;;;5056220;28;20611;-63
2022/03/23 04:07:06;;;;;;;24.80;16.73;;;3.90;1.00;;;;;;5059481;28;20207;-63
2022/03/23 04:09:33;;;;;;;24.07;17.77;;;4.00;1.00;;;;;;5057859;28;20808;-63
2022/03/23 04:12:00;;;;;;;24.13;16.67;;;3.90;1.00;;;;;;5050168;28;20252;-63
2022/03/23 04:14:27;;;;;;;25.17;17.37;;;3.90;1.00;;;;;;5058690;28;20913;-62
2022/03/23 04:16:54;;;;;;;25.27;17.67;;;4.00;1.00;;;;;;5058758;28;20264;-63
2022/03/23 04:19:22;;;;;;;29.67;18.63;;;3.90;1.00;;;;;;5060577;28;20222;-62
2022/03/23 04:21:51;;;;;;;25.13;17.97;;;3.80;1.00;;;;;;5067043;28;20199;-62
2022/03/23 04:24:18;;;;;;;25.40;17.27;;;3.80;1.00;;;;;;5058585;28;20295;-61
2022/03/23 04:26:45;;;;;;;24.60;17.03;;;3.80;1.00;;;;;;5060356;28;20199;-62
2022/03/23 04:29:12;;;;;;;28.33;17.57;;;3.80;1.00;;;;;;5066532;28;20282;-62
2022/03/23 04:31:41;;;;;;;32.70;17.53;;;3.70;1.00;;;;;;5048996;28;20248;-62
2022/03/23 04:34:11;;;;;;;26.63;17.60;;;3.70;1.00;;;;;;5046999;28;20199;-63
2022/03/23 04:36:38;;;;;;;27.10;17.47;;;3.60;1.00;;;;;;5063087;28;20371;-63
2022/03/23 04:39:05;;;;;;;23.60;16.80;;;3.60;1.00;;;;;;5064985;28;20251;-62
2022/03/23 04:41:32;;;;;;;24.77;16.53;;;3.60;1.00;;;;;;5063361;28;20203;-63
2022/03/23 04:43:58;;;;;;;26.53;17.40;;;3.60;1.00;;;;;;5067238;28;20292;-62
2022/03/23 04:46:28;;;;;;;26.47;17.93;;;3.60;1.00;;;;;;5057557;28;20678;-62
2022/03/23 04:48:55;;;;;;;27.90;18.23;;;3.60;1.00;;;;;;5064322;28;20277;-62
2022/03/23 04:51:22;;;;;;;25.03;17.77;;;3.60;8.90;;;;;;5048432;28;20256;-62
2022/03/23 04:53:49;;;;;;;25.50;17.37;;;3.60;1.00;;;;;;5062211;28;20305;-62
2022/03/23 04:56:16;;;;;;;26.43;18.33;;;3.60;93.20;;;;;;5063423;28;20200;-64
2022/03/23 04:58:46;;;;;;;24.47;18.33;;;3.60;1.00;;;;;;5063262;28;20320;-62
2022/03/23 05:01:12;;;;;;;23.43;16.93;;;3.50;1.00;;;;;;5061875;28;20205;-62
2022/03/23 05:03:40;;;;;;;29.20;18.43;;;3.50;1.00;;;;;;5062874;28;20591;-62
2022/03/23 05:06:07;;;;;;;28.90;17.53;;;3.50;1.00;;;;;;5064517;28;20663;-61
2022/03/23 05:08:34;;;;;;;26.43;18.37;;;3.50;1.00;;;;;;5064579;28;20213;-62
2022/03/23 05:11:03;;;;;;;29.63;18.37;;;3.40;1.00;;;;;;5063578;28;20330;-62
2022/03/23 05:13:30;;;;;;;29.53;18.97;;;3.40;1.00;;;;;;5062214;28;20233;-62
2022/03/23 05:15:57;;;;;;;24.80;17.00;;;3.40;1.00;;;;;;5039212;28;20210;-62
2022/03/23 05:18:28;;;;;;;26.73;18.40;;;3.40;1.00;;;;;;5060042;28;20215;-62
2022/03/23 05:20:55;;;;;;;26.67;17.87;;;3.40;1.00;;;;;;5071013;28;20218;-62
2022/03/23 05:23:27;;;;;;;26.47;18.57;;;3.40;1.00;;;;;;5066094;28;20216;-61
2022/03/23 05:25:54;;;;;;;27.13;17.63;;;3.40;1.00;;;;;;5064058;28;20654;-62
2022/03/23 05:28:26;;;;;;;27.93;17.23;;;3.40;1.00;;;;;;5078096;28;20232;-62
2022/03/23 05:30:53;;;;;;;25.33;17.87;;;3.40;1.00;;;;;;5060562;28;20290;-62
2022/03/23 05:33:20;;;;;;;26.33;19.10;;;3.40;1.00;;;;;;5063576;28;20680;-62
2022/03/23 05:35:47;;;;;;;27.53;18.43;;;3.50;1.00;;;;;;5046401;28;20594;-61
2022/03/23 05:38:14;;;;;;;24.80;19.23;;;3.50;1.00;;;;;;5059954;28;20758;-62
2022/03/23 05:40:41;;;;;;;25.40;17.90;;;3.50;1.00;;;;;;5049875;28;20219;-62
2022/03/23 05:43:08;;;;;;;26.73;17.83;;;3.50;1.00;;;;;;5063338;28;20222;-62
2022/03/23 05:45:35;;;;;;;28.40;17.77;;;3.60;1.00;;;;;;5048041;28;20191;-63
2022/03/23 05:48:04;;;;;;;23.97;17.47;;;3.60;1.00;;;;;;5076350;28;20631;-63
2022/03/23 05:50:31;;;;;;;27.20;18.17;;;3.70;1.00;;;;;;5062451;28;20228;-62
2022/03/23 05:53:01;;;;;;;25.20;17.23;;;3.80;1.00;;;;;;5061690;28;20301;-63
2022/03/23 05:55:28;;;;;;;32.07;17.77;;;3.90;1.00;;;;;;5078151;28;20201;-64
2022/03/23 05:57:55;;;;;;;28.70;18.47;;;4.00;1.00;;;;;;5060609;28;20624;-64
2022/03/23 06:00:24;;;;;;;27.67;18.27;;;4.00;1.00;;;;;;5046003;28;20200;-63
2022/03/23 06:03:00;;;;;;;27.47;18.90;;;4.10;1.00;;;;;;5061601;28;20721;-63
2022/03/23 06:05:27;;;;;;;27.53;18.17;;;4.30;1.00;;;;;;5060962;28;20195;-63
2022/03/23 06:07:54;;;;;;;26.73;17.70;;;5.80;1.00;;;;;;5052267;28;20196;-63
2022/03/23 06:10:21;;;;;;;25.07;16.67;;;7.70;99.90;;;;;;5058571;28;20195;-63
2022/03/23 06:12:51;;;;;;;25.27;17.10;;;9.10;1.00;;;;;;5062084;28;20203;-63
2022/03/23 06:15:20;;;;;;;24.10;17.43;;;10.40;1.00;;;;;;5061565;28;20219;-63
2022/03/23 06:17:47;;;;;;;23.63;17.60;;;11.30;1.00;;;;;;5067279;28;20195;-63
2022/03/23 06:20:14;;;;;;;24.87;17.37;;;12.00;1.00;;;;;;5067573;28;20287;-63
2022/03/23 06:22:41;;;;;;;22.13;18.10;;;12.50;1.00;;;;;;5063692;28;20782;-63
2022/03/23 06:25:09;;;;;;;26.60;18.10;;;12.90;1.00;;;;;;5062172;28;20222;-63
2022/03/23 06:27:36;;;;;;;21.97;17.70;;;13.60;1.00;;;;;;5046656;28;20195;-63
2022/03/23 06:30:04;;;;;;;28.37;19.17;;;14.00;99.90;;;;;;5061973;28;20252;-62
2022/03/23 06:32:33;;;;;;;26.33;19.10;;;13.80;99.90;;;;;;5059829;28;20204;-62
2022/03/23 06:35:01;;;;;;;24.27;17.90;;;12.90;99.90;;;;;;5069437;28;20235;-63
2022/03/23 06:37:30;;;;;;;24.80;18.33;;;11.60;99.90;;;;;;5059739;28;20207;-64
2022/03/23 06:39:57;;;;;;;24.17;17.80;;;11.00;1.00;;;;;;5037983;28;20269;-63
2022/03/23 06:42:25;;;;;;;21.43;16.40;;;13.10;1.00;;;;;;5034006;28;20816;-63
2022/03/23 06:44:52;;;;;;;22.50;17.33;;;15.30;99.90;;;;;;5051449;28;20200;-63
2022/03/23 06:47:19;;;;;;;22.67;16.87;;;14.50;99.90;;;;;;5061965;28;20212;-63
2022/03/23 06:49:46;;;;;;;21.83;16.73;;;15.30;99.90;;;;;;5071120;28;20204;-63
2022/03/23 06:52:14;;;;;;;19.20;16.52;;;17.20;99.90;;;;;;5064134;28;20243;-64
2022/03/23 06:54:41;;;;;;;24.73;17.10;;;17.10;99.90;;;;;;5051491;28;20244;-64
2022/03/23 06:57:13;;;;;;;26.30;19.23;;;16.80;99.90;;;;;;5066598;28;20196;-65
2022/03/23 06:59:45;;;;;;;22.70;17.48;;;16.00;99.90;;;;;;5064517;28;20671;-63
2022/03/23 07:02:11;;;;;;;23.92;18.23;;;16.80;99.90;;;;;;5067982;28;20195;-62
2022/03/23 07:04:41;;;;;;;28.98;19.52;;;16.20;99.90;;;;;;5045855;28;20682;-64
2022/03/23 07:07:13;;;;;;;21.55;18.13;;;15.40;99.90;;;;;;5060967;28;20202;-63
2022/03/23 07:09:41;;;;;;;22.80;18.52;;;15.20;99.90;;;;;;5066259;28;20187;-63
2022/03/23 07:12:10;;;;;;;24.60;18.40;;;15.70;99.90;;;;;;5063913;28;20245;-63
2022/03/23 07:14:41;;;;;;;22.92;17.63;;;14.80;99.90;;;;;;5068702;28;20217;-64
2022/03/23 07:17:10;;;;;;;23.45;17.88;;;16.00;99.90;;;;;;5062377;28;20195;-62
2022/03/23 07:19:37;;;;;;;24.08;18.00;;;17.40;99.90;;;;;;5063042;28;20214;-63
2022/03/23 07:22:05;;;;;;;20.42;16.02;;;18.60;99.90;;;;;;5063716;28;20564;-63
2022/03/23 07:24:32;;;;;;;19.65;17.10;;;20.20;99.90;;;;;;5063582;28;20195;-63
2022/03/23 07:27:04;;;;;;;22.20;16.98;;;19.70;99.90;;;;;;5061171;28;20197;-63
2022/03/23 07:29:45;;;;;;;18.45;15.75;;;19.60;99.90;;;;;;5061700;28;20560;-62
2022/03/23 07:32:12;;;;;;;20.63;16.05;;;19.50;99.90;;;;;;5043946;28;20298;-62
2022/03/23 07:34:39;;;;;;;22.23;16.73;;;19.40;99.90;;;;;;5061071;28;20195;-63
2022/03/23 07:37:06;;;;;;;19.15;16.05;;;17.80;99.90;;;;;;5045440;28;20623;-62
2022/03/23 07:39:38;;;;;;;20.67;17.17;;;19.10;99.90;;;;;;5063291;28;20299;-62
2022/03/23 07:42:05;;;;;;;22.95;16.63;;;17.20;99.90;;;;;;5044854;28;20826;-62
2022/03/23 07:44:41;;;;;;;19.42;16.25;;;17.50;99.90;;;;;;5061137;28;20205;-62
2022/03/23 07:47:11;;;;;;;23.25;16.27;;;17.90;99.90;;;;;;5079270;28;20666;-62
2022/03/23 07:49:39;;;;;;;19.35;16.60;;;17.10;99.90;;;;;;5062836;28;20318;-63
2022/03/23 07:52:06;;;;;;;17.13;15.32;;;17.20;99.90;;;;;;5065323;28;20632;-62
2022/03/23 07:54:34;;;;;;;22.38;16.13;;;17.30;99.90;;;;;;5062476;28;20225;-64
2022/03/23 07:57:01;;;;;;;21.45;15.32;;;17.60;99.90;;;;;;5063218;28;20199;-63
2022/03/23 07:59:31;;;;;;;22.08;15.70;;;17.90;99.90;;;;;;5067385;28;20242;-63
2022/03/23 08:01:58;;;;;;;17.25;15.40;;;18.70;99.90;;;;;;5040367;28;20226;-63
2022/03/23 08:04:25;;;;;;;21.52;17.15;;;18.50;99.90;;;;;;5048344;28;20199;-62
2022/03/23 08:06:52;;;;;;;21.85;17.50;;;18.60;99.90;;;;;;5060187;28;20206;-62
2022/03/23 08:09:19;;;;;;;23.40;15.85;;;19.10;99.90;;;;;;5058572;28;20214;-62
2022/03/23 08:11:46;;;;;;;21.30;16.13;;;19.10;99.90;;;;;;5059784;28;20241;-62
2022/03/23 08:14:13;;;;;;;23.88;16.30;;;19.90;99.90;;;;;;5064790;28;20790;-62
2022/03/23 08:16:39;;;;;;;26.52;17.23;;;22.30;99.90;;;;;;5061632;28;20283;-62
2022/03/23 08:19:07;;;;;;;21.10;16.60;;;23.30;99.90;;;;;;5060470;28;20748;-63
2022/03/23 08:21:34;;;;;;;18.48;15.75;;;21.20;99.90;;;;;;5059341;28;20198;-63
2022/03/23 08:24:01;;;;;;;21.83;16.67;;;24.80;99.90;;;;;;5043841;28;20224;-63
2022/03/23 08:26:28;;;;;;;19.67;15.70;;;23.20;99.90;;;;;;5061533;28;20194;-63
2022/03/23 08:28:55;;;;;;;19.00;15.48;;;24.20;99.90;;;;;;5063315;28;20190;-63
2022/03/23 08:31:23;;;;;;;19.27;16.63;;;22.40;99.90;;;;;;5076906;28;20287;-63
2022/03/23 08:33:50;;;;;;;18.92;16.38;;;21.60;99.90;;;;;;5060204;28;20199;-63
2022/03/23 08:36:17;;;;;;;20.67;15.20;;;21.80;99.90;;;;;;5064437;28;20207;-62
2022/03/23 08:38:44;;;;;;;21.30;15.73;;;22.50;99.90;;;;;;5044395;28;20194;-62
2022/03/23 08:41:12;;;;;;;20.17;16.55;;;22.40;99.90;;;;;;5060660;28;20221;-62
2022/03/23 08:43:40;;;;;;;18.20;14.82;;;22.80;99.90;;;;;;5062594;28;20230;-64
2022/03/23 08:46:08;;;;;;;17.65;15.45;;;22.00;99.90;;;;;;5048872;28;20204;-64
2022/03/23 08:48:36;;;;;;;20.35;15.57;;;25.40;99.90;;;;;;5060083;28;20226;-62
2022/03/23 08:51:03;;;;;;;22.65;15.30;;;25.90;99.90;;;;;;5061400;28;20237;-63
2022/03/23 08:53:30;;;;;;;19.08;14.82;;;26.30;99.90;;;;;;5045401;28;20203;-62
2022/03/23 08:55:57;;;;;;;22.83;16.67;;;29.60;99.90;;;;;;5056787;28;20666;-63
2022/03/23 08:58:24;;;;;;;18.10;16.17;;;29.50;99.90;;;;;;5065663;28;20215;-64
2022/03/23 09:00:52;;;;;;;19.42;16.75;;;26.60;99.90;;;;;;5058643;28;20211;-63
2022/03/23 09:03:19;;;;;;;18.05;15.40;;;29.90;99.90;;;;;;5061739;28;20310;-64
2022/03/23 09:05:48;;;;;;;21.13;15.93;;;30.50;99.90;;;;;;5060486;28;20234;-63
2022/03/23 09:08:18;;;;;;;17.70;15.32;;;28.10;99.90;;;;;;5043299;28;20473;-64
2022/03/23 09:10:45;;;;;;;18.70;16.77;;;30.50;99.90;;;;;;5043371;28;20219;-63
2022/03/23 09:13:12;;;;;;;18.65;15.98;;;32.60;99.90;;;;;;5059086;28;20211;-63
2022/03/23 09:15:39;;;;;;;19.35;16.60;;;29.10;99.90;;;;;;5063026;28;20191;-64
2022/03/23 09:18:07;;;;;;;17.50;15.77;;;27.80;99.90;;;;;;5064405;28;20196;-63
2022/03/23 09:20:35;;;;;;;18.20;15.98;;;30.80;99.90;;;;;;5063810;28;20272;-63
2022/03/23 09:23:08;;;;;;;17.23;15.55;;;34.50;99.90;;;;;;5051372;28;20745;-63
2022/03/23 09:25:40;;;;;;;20.95;15.35;;;33.60;99.90;;;;;;5060642;28;20677;-63
2022/03/23 09:28:07;;;;;;;23.05;15.88;;;32.10;99.90;;;;;;5067277;28;20191;-62
2022/03/23 09:30:36;;;;;;;17.30;15.60;;;30.40;99.90;;;;;;5060927;28;20675;-63
2022/03/23 09:33:07;;;;;;;14.07;12.60;;;32.00;99.90;;;;;;5059037;28;20199;-63
2022/03/23 09:35:34;;;;;;;18.90;15.07;;;34.90;99.90;;;;;;5042674;28;20260;-63
2022/03/23 09:38:04;;;;;;;20.90;16.20;;;34.40;99.90;;;;;;5047729;28;20653;-63
2022/03/23 09:40:32;;;;;;;16.48;14.15;;;36.90;99.90;;;;;;5059240;28;20234;-64
2022/03/23 09:43:01;;;;;;;18.75;16.73;;;38.30;99.90;;;;;;5075234;28;20227;-63
2022/03/23 09:47:59;;;;;;;14.77;12.85;;;39.80;99.90;;;;;;5057104;28;20195;-63
2022/03/23 09:50:29;;;;;;;14.80;13.30;;;39.60;99.90;;;;;;5058054;28;20309;-64
2022/03/23 09:52:57;;;;;;;16.05;14.18;;;39.00;99.90;;;;;;5054544;28;20211;-63
2022/03/23 09:55:24;;;;;;;16.92;14.35;;;38.70;99.90;;;;;;5054930;28;20222;-64
2022/03/23 09:57:58;;;;;;;18.30;14.55;;;39.50;99.90;;;;;;5050995;28;20290;-63
2022/03/23 10:00:29;;;;;;;16.75;15.02;;;40.30;99.90;;;;;;5041615;28;20252;-65
2022/03/23 10:03:11;;;;;;;19.67;15.43;;;40.20;99.90;;;;;;5054239;28;20199;-63
2022/03/23 10:06:05;;;;;;;17.30;15.70;;;39.40;99.90;;;;;;5045688;28;20245;-63
2022/03/23 10:08:57;;;;;;;22.35;15.88;;;37.60;99.90;;;;;;5061852;28;20195;-63
2022/03/23 10:12:02;;;;;;;21.85;16.10;;;38.00;99.90;;;;;;5059022;28;20244;-64
2022/03/23 10:15:06;;;;;;;19.27;16.33;;;37.10;99.90;;;;;;5061942;28;20202;-62
2022/03/23 10:17:58;;;;;;;18.42;15.70;;;34.90;99.90;;;;;;5042809;28;20245;-64
2022/03/23 10:20:25;;;;;;;17.33;15.52;;;37.70;99.90;;;;;;5058075;28;20203;-63
2022/03/23 10:22:54;;;;;;;17.20;15.60;;;38.10;99.90;;;;;;5060056;28;20762;-63
2022/03/23 10:25:29;;;;;;;18.58;15.68;;;38.50;99.90;;;;;;5060168;28;20270;-65
2022/03/23 10:27:56;;;;;;;18.77;16.05;;;39.00;99.90;;;;;;5059653;28;20191;-63
2022/03/23 10:30:37;;;;;;;16.90;15.13;;;38.10;99.90;;;;;;5061793;28;23655;-64
2022/03/23 10:33:23;;;;;;;18.55;16.42;;;38.20;99.90;;;;;;5061254;28;20191;-63
2022/03/23 10:35:59;;;;;;;19.40;16.13;;;37.00;99.90;;;;;;5066087;28;20234;-64
2022/03/23 10:38:28;;;;;;;18.25;16.27;;;34.30;99.90;;;;;;5061978;28;20262;-65
2022/03/23 10:40:55;;;;;;;17.27;15.57;;;35.80;99.90;;;;;;5043231;28;20678;-64
2022/03/23 10:43:35;;;;;;;18.50;16.50;;;37.30;99.90;;;;;;5050339;28;20276;-64
2022/03/23 10:46:09;;;;;;;19.30;16.67;;;37.90;99.90;;;;;;5060093;28;20192;-64
2022/03/23 10:48:47;;;;;;;19.00;16.33;;;36.50;99.90;;;;;;5050531;28;20205;-63
2022/03/23 10:51:24;;;;;;;17.67;15.80;;;34.50;99.90;;;;;;5061191;28;20191;-63
2022/03/23 10:53:51;;;;;;;22.08;16.38;;;34.30;99.90;;;;;;5060786;28;20245;-63
2022/03/23 10:56:29;;;;;;;17.90;16.00;;;34.00;99.90;;;;;;5060566;28;20527;-64
2022/03/23 10:59:26;;;;;;;17.20;15.38;;;35.40;99.90;;;;;;5057300;28;20215;-64
2022/03/23 11:02:11;;;;;;;18.65;16.23;;;35.20;99.90;;;;;;5050646;28;20179;-64
2022/03/23 11:04:47;;;;;;;20.20;17.08;;;34.30;99.90;;;;;;5047139;28;20206;-64
2022/03/23 11:07:31;;;;;;;20.98;16.40;;;34.10;99.90;;;;;;5062813;28;20194;-63
2022/03/23 11:15:49;;;;;;;18.25;16.38;;;35.20;99.90;;;;;;5057306;28;20230;-64
2022/03/23 11:18:20;;;;;;;21.52;16.15;;;34.10;99.90;;;;;;5047178;28;20247;-64
2022/03/23 11:20:54;;;;;;;19.92;16.13;;;32.90;99.90;;;;;;5057149;28;20713;-63
2022/03/23 11:23:26;;;;;;;18.75;16.75;;;32.90;99.90;;;;;;5055830;28;20223;-63
2022/03/23 11:26:04;;;;;;;16.90;15.23;;;32.50;99.90;;;;;;5062586;28;20447;-64
2022/03/23 11:28:38;;;;;;;19.13;15.73;;;31.80;99.90;;;;;;5061383;28;20248;-63
2022/03/23 11:31:07;;;;;;;20.70;16.33;;;31.90;99.90;;;;;;5063214;28;20253;-64
2022/03/23 11:33:34;;;;;;;16.27;14.27;;;30.90;99.90;;;;;;5055880;28;20202;-64
2022/03/23 11:36:10;;;;;;;17.90;14.07;;;30.60;99.90;;;;;;5055809;28;20217;-63
2022/03/23 11:38:39;;;;;;;22.58;15.05;;;31.00;99.90;;;;;;5065847;28;20195;-64
2022/03/23 11:41:08;;;;;;;18.33;14.63;;;27.30;99.90;;;;;;5058489;28;20229;-63
2022/03/23 11:43:36;;;;;;;16.88;14.77;;;29.20;99.90;;;;;;5054868;28;20276;-64
2022/03/23 11:46:23;;;;;;;17.80;14.88;;;31.20;99.90;;;;;;5056941;28;20195;-63
2022/03/23 11:49:28;;;;;;;20.85;15.60;;;31.70;99.90;;;;;;5054986;28;20199;-64
2022/03/23 11:52:22;;;;;;;20.98;16.02;;;28.30;99.90;;;;;;5059841;28;20226;-63
2022/03/23 11:57:54;;;;;;;20.55;14.68;;;28.20;99.90;;;;;;5058895;28;20198;-63
2022/03/23 12:00:26;;;;;;;18.17;15.63;;;29.10;99.90;;;;;;5057847;28;20257;-63
2022/03/23 12:02:54;;;;;;;20.20;15.50;;;26.60;99.90;;;;;;5061469;28;20190;-63
2022/03/23 12:05:29;;;;;;;20.08;14.02;;;26.30;99.90;;;;;;5061265;28;20199;-64
2022/03/23 12:08:04;;;;;;;17.38;14.55;;;26.10;99.90;;;;;;5058163;28;20202;-63
2022/03/23 12:10:32;;;;;;;15.60;13.93;;;27.70;99.90;;;;;;5060382;28;20730;-63
2022/03/23 12:13:15;;;;;;;17.10;13.43;;;27.10;99.90;;;;;;5060837;28;20202;-63
2022/03/23 12:15:59;;;;;;;16.13;12.88;;;23.80;99.90;;;;;;5045033;28;20218;-62
2022/03/23 12:19:03;;;;;;;16.30;13.10;;;24.20;99.90;;;;;;5044668;28;20203;-63
2022/03/23 12:21:45;;;;;;;21.85;12.75;;;25.20;99.90;;;;;;5052824;28;20312;-63
2022/03/23 12:24:25;;;;;;;16.83;12.93;;;24.20;99.90;;;;;;5059854;28;20612;-63
2022/03/23 12:26:56;;;;;;;15.63;12.80;;;23.80;99.90;;;;;;5059439;28;20247;-62
2022/03/23 12:29:29;;;;;;;14.48;12.52;;;24.50;99.90;;;;;;5060865;28;20223;-63
2022/03/23 12:32:08;;;;;;;16.42;12.32;;;23.80;99.90;;;;;;5049118;28;20198;-63
2022/03/23 12:34:37;;;;;;;15.90;14.20;;;26.10;99.90;;;;;;5059365;28;20721;-62
2022/03/23 12:37:12;;;;;;;15.60;13.05;;;23.20;99.90;;;;;;5061378;28;20203;-62
2022/03/23 12:39:40;;;;;;;20.80;13.30;;;22.30;99.90;;;;;;5060242;28;20199;-62
2022/03/23 12:42:15;;;;;;;14.98;12.85;;;22.60;99.90;;;;;;5059635;28;20200;-65
2022/03/23 12:44:47;;;;;;;15.35;12.43;;;23.50;99.90;;;;;;5065692;28;20199;-63
2022/03/23 12:47:26;;;;;;;16.77;12.70;;;24.80;99.90;;;;;;5060098;28;20225;-63
2022/03/23 12:58:35;;;;;;;14.73;11.55;;;25.80;99.90;;;;;;5065086;28;20674;-63
2022/03/23 13:01:16;;;;;;;19.38;12.23;;;25.70;99.90;;;;;;5071322;28;20210;-63
2022/03/23 13:03:48;;;;;;;14.55;12.55;;;25.20;99.90;;;;;;5044798;28;20194;-63
2022/03/23 13:06:20;;;;;;;14.73;12.80;;;25.00;99.90;;;;;;5065634;28;20242;-63
2022/03/23 13:08:48;;;;;;;18.40;13.18;;;24.50;99.90;;;;;;5064923;28;20248;-62
2022/03/23 13:11:22;;;;;;;14.32;12.43;;;24.10;99.90;;;;;;5062460;28;20180;-63
2022/03/23 13:13:53;;;;;;;16.08;11.90;;;23.70;99.90;;;;;;5052376;28;20223;-63
2022/03/23 13:16:25;;;;;;;17.08;13.43;;;23.70;99.90;;;;;;5062404;28;20225;-62
2022/03/23 13:19:02;;;;;;;15.20;12.57;;;22.50;99.90;;;;;;5063824;28;20206;-62
2022/03/23 13:21:33;;;;;;;15.82;11.75;;;22.50;99.90;;;;;;5066341;28;20258;-64
2022/03/23 13:24:06;;;;;;;16.80;12.13;;;22.80;99.90;;;;;;5060591;28;20214;-63